createdAt,value
2019-03-29T00:00:06.413Z,9.40
2019-03-29T00:02:34.470Z,9.40
2019-03-29T00:05:02.527Z,9.40
2019-03-29T00:07:39.345Z,9.40
2019-03-29T00:10:00.704Z,9.40
2019-03-29T00:12:28.810Z,9.40
2019-03-29T00:14:56.871Z,9.40
2019-03-29T00:17:24.958Z,9.40
2019-03-29T00:19:53.534Z,9.30
2019-03-29T00:22:22.313Z,9.30
2019-03-29T00:24:50.387Z,9.40
2019-03-29T00:27:19.110Z,9.40
2019-03-29T00:29:47.387Z,9.40
2019-03-29T00:32:15.518Z,9.40
2019-03-29T00:34:43.923Z,9.40
2019-03-29T00:37:11.972Z,9.30
2019-03-29T00:39:40.315Z,9.40
2019-03-29T00:42:09.137Z,9.40
2019-03-29T00:44:37.249Z,9.40
2019-03-29T00:47:05.716Z,9.40
2019-03-29T00:49:33.799Z,9.40
2019-03-29T00:52:02.251Z,9.40
2019-03-29T00:54:30.330Z,9.40
2019-03-29T00:56:58.392Z,9.50
2019-03-29T00:59:26.500Z,9.40
2019-03-29T01:01:54.652Z,9.40
2019-03-29T01:04:22.732Z,9.40
2019-03-29T01:06:50.815Z,9.40
2019-03-29T01:09:18.969Z,9.40
2019-03-29T01:11:47.333Z,9.40
2019-03-29T01:14:15.472Z,9.40
2019-03-29T01:16:44.608Z,9.40
2019-03-29T01:19:12.699Z,9.40
2019-03-29T01:21:41.050Z,9.40
2019-03-29T01:24:09.160Z,9.50
2019-03-29T01:26:37.201Z,9.50
2019-03-29T01:29:05.353Z,9.50
2019-03-29T01:31:33.452Z,9.50
2019-03-29T01:34:01.538Z,9.60
2019-03-29T01:36:29.657Z,9.60
2019-03-29T01:38:57.779Z,9.60
2019-03-29T01:41:26.940Z,9.60
2019-03-29T01:43:55.271Z,9.60
2019-03-29T01:46:23.319Z,9.60
2019-03-29T01:48:51.412Z,9.60
2019-03-29T01:51:19.892Z,9.60
2019-03-29T01:53:47.946Z,9.60
2019-03-29T01:56:16.022Z,9.60
2019-03-29T01:58:44.091Z,9.60
2019-03-29T02:01:12.171Z,9.60
2019-03-29T02:03:40.235Z,9.60
2019-03-29T02:06:08.371Z,9.60
2019-03-29T02:08:37.827Z,9.60
2019-03-29T02:11:06.316Z,9.60
2019-03-29T02:13:34.367Z,9.60
2019-03-29T02:16:03.805Z,9.60
2019-03-29T02:18:32.033Z,9.50
2019-03-29T02:21:00.143Z,9.60
2019-03-29T02:23:28.310Z,9.50
2019-03-29T02:25:56.389Z,9.60
2019-03-29T02:28:24.449Z,9.60
2019-03-29T02:30:52.482Z,9.60
2019-03-29T02:33:21.148Z,9.60
2019-03-29T02:35:49.254Z,9.60
2019-03-29T02:38:17.367Z,9.60
2019-03-29T02:40:45.418Z,9.60
2019-03-29T02:43:13.490Z,9.60
2019-03-29T02:45:41.570Z,9.60
2019-03-29T02:48:09.641Z,9.60
2019-03-29T02:50:37.714Z,9.60
2019-03-29T02:53:05.884Z,9.60
2019-03-29T02:55:34.514Z,9.60
2019-03-29T02:58:02.635Z,9.60
2019-03-29T03:00:30.740Z,9.70
2019-03-29T03:02:58.879Z,9.70
2019-03-29T03:05:26.976Z,9.70
2019-03-29T03:07:55.017Z,9.60
2019-03-29T03:10:23.206Z,9.60
2019-03-29T03:12:51.265Z,9.60
2019-03-29T03:15:19.323Z,9.60
2019-03-29T03:17:47.850Z,9.60
2019-03-29T03:20:16.230Z,9.60
2019-03-29T03:22:44.300Z,9.60
2019-03-29T03:25:12.691Z,9.50
2019-03-29T03:27:40.786Z,9.50
2019-03-29T03:30:09.445Z,9.50
2019-03-29T03:32:37.607Z,9.50
2019-03-29T03:35:05.922Z,9.50
2019-03-29T03:37:34.348Z,9.50
2019-03-29T03:40:02.507Z,9.60
2019-03-29T03:42:30.900Z,9.60
2019-03-29T03:44:58.976Z,9.50
2019-03-29T03:47:27.049Z,9.50
2019-03-29T03:49:55.206Z,9.50
2019-03-29T03:52:23.400Z,9.50
2019-03-29T03:54:51.594Z,9.60
2019-03-29T03:57:19.818Z,9.60
2019-03-29T03:59:47.971Z,9.60
2019-03-29T04:02:16.103Z,9.60
2019-03-29T04:04:44.285Z,9.60
2019-03-29T04:07:12.352Z,9.60
2019-03-29T04:09:49.429Z,9.60
2019-03-29T04:12:10.739Z,9.60
2019-03-29T04:14:38.830Z,9.60
2019-03-29T04:17:06.880Z,9.60
2019-03-29T04:19:34.974Z,9.60
2019-03-29T04:22:03.038Z,9.60
2019-03-29T04:24:31.124Z,9.50
2019-03-29T04:26:59.167Z,9.50
2019-03-29T04:29:27.262Z,9.60
2019-03-29T04:31:55.606Z,9.60
2019-03-29T04:34:23.715Z,9.50
2019-03-29T04:36:51.776Z,9.50
2019-03-29T04:39:19.866Z,9.50
2019-03-29T04:41:47.902Z,9.60
2019-03-29T04:44:16.010Z,9.60
2019-03-29T04:46:44.060Z,9.60
2019-03-29T04:49:12.438Z,9.60
2019-03-29T04:51:40.571Z,9.70
2019-03-29T04:54:08.698Z,9.60
2019-03-29T04:56:36.734Z,9.60
2019-03-29T04:59:04.862Z,9.60
2019-03-29T05:01:32.998Z,9.60
2019-03-29T05:04:01.339Z,9.60
2019-03-29T05:06:29.499Z,9.60
2019-03-29T05:08:57.649Z,9.60
2019-03-29T05:11:25.800Z,9.60
2019-03-29T05:13:53.906Z,9.60
2019-03-29T05:16:22.047Z,9.70
2019-03-29T05:18:50.145Z,9.70
2019-03-29T05:21:18.495Z,9.70
2019-03-29T05:23:46.592Z,9.70
2019-03-29T05:26:14.634Z,9.70
2019-03-29T05:28:42.739Z,9.70
2019-03-29T05:31:10.808Z,9.70
2019-03-29T05:33:38.883Z,9.70
2019-03-29T05:36:07.223Z,9.70
2019-03-29T05:38:35.361Z,9.70
2019-03-29T05:41:03.487Z,9.60
2019-03-29T05:43:31.579Z,9.70
2019-03-29T05:45:59.618Z,9.70
2019-03-29T05:48:27.723Z,9.70
2019-03-29T05:50:55.878Z,9.80
2019-03-29T05:53:23.968Z,9.80
2019-03-29T05:55:52.008Z,9.90
2019-03-29T05:58:20.071Z,10.00
2019-03-29T06:00:48.608Z,10.10
2019-03-29T06:03:17.080Z,10.10
2019-03-29T06:05:45.132Z,10.10
2019-03-29T06:08:13.236Z,10.20
2019-03-29T06:10:48.756Z,10.20
2019-03-29T06:13:11.244Z,10.20
2019-03-29T06:15:39.367Z,10.20
2019-03-29T06:18:07.467Z,10.20
2019-03-29T06:20:35.930Z,10.30
2019-03-29T06:23:04.020Z,10.40
2019-03-29T06:25:32.162Z,10.40
2019-03-29T06:28:00.332Z,10.50
2019-03-29T06:30:29.269Z,10.50
2019-03-29T06:32:58.086Z,10.50
2019-03-29T06:35:26.682Z,10.50
2019-03-29T06:37:54.990Z,10.50
2019-03-29T06:40:24.875Z,10.60
2019-03-29T06:42:53.078Z,10.70
2019-03-29T06:45:21.155Z,10.70
2019-03-29T06:47:49.244Z,10.70
2019-03-29T06:50:17.402Z,10.80
2019-03-29T06:52:46.930Z,10.90
2019-03-29T06:55:15.102Z,10.90
2019-03-29T06:57:43.259Z,10.90
2019-03-29T07:00:11.527Z,10.90
2019-03-29T07:02:39.891Z,11.00
2019-03-29T07:05:08.018Z,11.10
2019-03-29T07:07:36.150Z,11.30
2019-03-29T07:10:04.355Z,11.30
2019-03-29T07:12:32.510Z,11.40
2019-03-29T07:15:00.907Z,11.50
2019-03-29T07:17:29.066Z,11.50
2019-03-29T07:19:57.685Z,11.60
2019-03-29T07:22:25.817Z,11.70
2019-03-29T07:24:53.954Z,11.70
2019-03-29T07:27:22.059Z,11.70
2019-03-29T07:29:50.134Z,11.70
2019-03-29T07:32:18.222Z,11.70
2019-03-29T07:34:49.010Z,11.80
2019-03-29T07:37:16.499Z,11.90
2019-03-29T07:39:44.867Z,12.00
2019-03-29T07:42:13.007Z,12.00
2019-03-29T07:44:41.130Z,12.00
2019-03-29T07:47:09.217Z,12.00
2019-03-29T07:49:37.380Z,12.00
2019-03-29T07:52:05.447Z,12.00
2019-03-29T07:54:33.555Z,12.00
2019-03-29T07:57:01.722Z,12.10
2019-03-29T07:59:29.870Z,12.20
2019-03-29T08:01:58.112Z,12.10
2019-03-29T08:04:26.172Z,12.20
2019-03-29T08:06:54.413Z,12.20
2019-03-29T08:09:22.934Z,12.10
2019-03-29T08:11:51.185Z,12.20
2019-03-29T08:14:19.325Z,12.40
2019-03-29T08:16:47.472Z,12.50
2019-03-29T08:19:15.526Z,12.70
2019-03-29T08:21:43.667Z,12.90
2019-03-29T08:24:11.842Z,13.10
2019-03-29T08:26:40.127Z,13.30
2019-03-29T08:29:08.267Z,13.50
2019-03-29T08:31:36.446Z,13.50
2019-03-29T08:34:04.514Z,13.40
2019-03-29T08:36:32.590Z,13.40
2019-03-29T08:39:00.682Z,13.40
2019-03-29T08:41:28.747Z,13.20
2019-03-29T08:43:56.846Z,13.10
2019-03-29T08:46:24.977Z,13.20
2019-03-29T08:48:53.075Z,13.20
2019-03-29T08:51:21.231Z,13.10
2019-03-29T08:53:50.344Z,13.10
2019-03-29T08:56:18.396Z,13.10
2019-03-29T08:58:46.756Z,13.10
2019-03-29T09:01:14.946Z,13.00
2019-03-29T09:03:43.287Z,13.10
2019-03-29T09:06:11.403Z,13.20
2019-03-29T09:08:39.486Z,13.30
2019-03-29T09:11:07.867Z,13.40
2019-03-29T09:13:36.182Z,13.30
2019-03-29T09:16:04.306Z,13.10
2019-03-29T09:18:32.385Z,13.00
2019-03-29T09:21:01.476Z,12.80
2019-03-29T09:23:30.304Z,12.80
2019-03-29T09:25:58.644Z,12.90
2019-03-29T09:28:26.739Z,13.00
2019-03-29T09:30:56.472Z,13.10
2019-03-29T09:33:24.730Z,13.10
2019-03-29T09:35:52.878Z,13.20
2019-03-29T09:38:20.928Z,13.20
2019-03-29T09:40:58.268Z,13.20
2019-03-29T09:43:18.846Z,13.10
2019-03-29T09:45:46.898Z,13.20
2019-03-29T09:48:15.030Z,13.30
2019-03-29T09:50:47.525Z,13.20
2019-03-29T09:53:12.934Z,13.00
2019-03-29T09:55:41.194Z,12.90
2019-03-29T09:58:09.310Z,12.80
2019-03-29T10:00:37.410Z,12.90
2019-03-29T10:03:05.559Z,13.00
2019-03-29T10:05:33.618Z,13.10
2019-03-29T10:08:01.708Z,13.00
2019-03-29T10:10:29.805Z,13.00
2019-03-29T10:12:57.847Z,13.00
2019-03-29T10:15:25.943Z,13.10
2019-03-29T10:17:53.990Z,13.30
2019-03-29T10:20:22.698Z,13.40
2019-03-29T10:22:50.746Z,13.50
2019-03-29T10:25:20.208Z,13.60
2019-03-29T10:27:48.655Z,13.70
2019-03-29T10:30:22.034Z,13.70
2019-03-29T10:32:50.104Z,13.80
2019-03-29T10:35:18.415Z,13.90
2019-03-29T10:37:46.554Z,13.90
2019-03-29T10:40:14.646Z,13.90
2019-03-29T10:42:56.757Z,14.00
2019-03-29T10:45:12.526Z,14.10
2019-03-29T10:47:44.079Z,14.20
2019-03-29T10:50:10.490Z,14.10
2019-03-29T10:52:38.526Z,14.20
2019-03-29T10:55:06.887Z,14.00
2019-03-29T10:57:35.067Z,13.90
2019-03-29T11:00:03.973Z,13.90
2019-03-29T11:02:32.086Z,14.00
2019-03-29T11:05:00.343Z,14.20
2019-03-29T11:07:28.560Z,14.30
2019-03-29T11:09:57.330Z,14.40
2019-03-29T11:12:25.463Z,14.40
2019-03-29T11:14:53.584Z,14.50
2019-03-29T11:17:21.634Z,14.50
2019-03-29T11:19:49.684Z,14.60
2019-03-29T11:22:17.807Z,14.70
2019-03-29T11:24:45.870Z,14.80
2019-03-29T11:27:13.963Z,14.70
2019-03-29T11:29:48.683Z,14.70
2019-03-29T11:32:16.762Z,14.50
2019-03-29T11:34:44.807Z,14.40
2019-03-29T11:37:12.902Z,14.50
2019-03-29T11:39:40.960Z,14.40
2019-03-29T11:42:09.041Z,14.50
2019-03-29T11:44:37.087Z,14.40
2019-03-29T11:47:05.202Z,14.30
2019-03-29T11:49:33.237Z,14.30
2019-03-29T11:52:01.330Z,14.20
2019-03-29T11:54:29.698Z,14.10
2019-03-29T11:56:57.859Z,14.30
2019-03-29T11:59:25.938Z,14.30
2019-03-29T12:01:54.619Z,14.40
2019-03-29T12:04:22.798Z,14.60
2019-03-29T12:06:50.858Z,14.90
2019-03-29T12:09:18.911Z,14.90
2019-03-29T12:11:47.034Z,15.10
2019-03-29T12:14:15.103Z,15.00
2019-03-29T12:16:43.186Z,15.00
2019-03-29T12:19:11.338Z,14.80
2019-03-29T12:21:39.746Z,14.70
2019-03-29T12:24:07.889Z,14.50
2019-03-29T12:26:35.963Z,14.40
2019-03-29T12:29:04.242Z,14.50
2019-03-29T12:31:32.319Z,14.50
2019-03-29T12:34:00.382Z,14.60
2019-03-29T12:36:28.426Z,14.70
2019-03-29T12:38:56.555Z,14.60
2019-03-29T12:41:24.699Z,14.60
2019-03-29T12:43:55.973Z,14.50
2019-03-29T12:46:22.581Z,14.70
2019-03-29T12:48:50.697Z,14.70
2019-03-29T12:51:18.836Z,14.50
2019-03-29T12:53:46.907Z,14.40
2019-03-29T12:56:14.947Z,14.40
2019-03-29T12:58:43.387Z,14.40
2019-03-29T13:01:11.530Z,14.40
2019-03-29T13:03:39.858Z,14.30
2019-03-29T13:06:08.482Z,14.20
2019-03-29T13:08:36.587Z,14.20
2019-03-29T13:11:04.819Z,14.20
2019-03-29T13:13:32.932Z,14.20
2019-03-29T13:16:01.126Z,14.20
2019-03-29T13:18:29.789Z,14.20
2019-03-29T13:20:57.946Z,14.10
2019-03-29T13:23:26.334Z,14.10
2019-03-29T13:25:54.491Z,14.00
2019-03-29T13:28:22.604Z,13.90
2019-03-29T13:30:50.859Z,14.00
2019-03-29T13:33:20.536Z,14.00
2019-03-29T13:35:48.719Z,14.10
2019-03-29T13:38:20.171Z,14.20
2019-03-29T13:40:46.797Z,14.20
2019-03-29T13:43:14.905Z,14.10
2019-03-29T13:45:43.061Z,14.10
2019-03-29T13:48:11.250Z,14.00
2019-03-29T13:50:39.341Z,14.20
2019-03-29T13:53:07.395Z,14.10
2019-03-29T13:55:35.636Z,13.90
2019-03-29T13:58:03.750Z,13.70
2019-03-29T14:00:31.839Z,13.70
2019-03-29T14:03:00.001Z,13.90
2019-03-29T14:05:28.086Z,14.00
2019-03-29T14:07:56.242Z,14.10
2019-03-29T14:10:24.335Z,14.10
2019-03-29T14:12:52.378Z,14.10
2019-03-29T14:15:20.759Z,14.10
2019-03-29T14:17:48.836Z,14.10
2019-03-29T14:20:21.442Z,14.10
2019-03-29T14:22:49.790Z,14.20
2019-03-29T14:25:17.879Z,14.30
2019-03-29T14:27:45.955Z,14.50
2019-03-29T14:30:14.210Z,14.50
2019-03-29T14:32:42.291Z,14.40
2019-03-29T14:35:10.472Z,14.30
2019-03-29T14:37:38.530Z,14.20
2019-03-29T14:40:07.467Z,14.20
2019-03-29T14:42:35.759Z,14.30
2019-03-29T14:45:04.378Z,14.40
2019-03-29T14:47:42.641Z,14.40
2019-03-29T14:50:02.254Z,14.50
2019-03-29T14:52:30.405Z,14.50
2019-03-29T14:54:58.520Z,14.50
2019-03-29T14:57:26.614Z,14.40
2019-03-29T14:59:54.761Z,14.20
2019-03-29T15:02:22.854Z,14.20
2019-03-29T15:04:50.908Z,14.20
2019-03-29T15:07:19.523Z,14.20
2019-03-29T15:09:47.877Z,14.20
2019-03-29T15:12:15.971Z,14.20
2019-03-29T15:14:44.118Z,14.20
2019-03-29T15:17:12.215Z,14.20
2019-03-29T15:19:40.363Z,14.30
2019-03-29T15:22:08.465Z,14.40
2019-03-29T15:24:36.611Z,14.40
2019-03-29T15:27:04.781Z,14.40
2019-03-29T15:29:32.885Z,14.20
2019-03-29T15:32:00.945Z,14.10
2019-03-29T15:34:28.987Z,14.10
2019-03-29T15:36:57.054Z,14.10
2019-03-29T15:39:25.150Z,14.10
2019-03-29T15:41:53.210Z,13.90
2019-03-29T15:44:21.308Z,13.90
2019-03-29T15:46:49.386Z,13.90
2019-03-29T15:49:17.540Z,14.00
2019-03-29T15:51:45.626Z,14.10
2019-03-29T15:54:13.693Z,14.10
2019-03-29T15:56:41.852Z,14.10
2019-03-29T15:59:09.941Z,14.20
2019-03-29T16:01:38.941Z,14.10
2019-03-29T16:04:07.195Z,14.00
2019-03-29T16:06:35.262Z,13.90
2019-03-29T16:09:05.290Z,13.80
2019-03-29T16:11:33.406Z,13.60
2019-03-29T16:14:01.610Z,13.40
2019-03-29T16:16:29.734Z,13.40
2019-03-29T16:18:57.882Z,13.40
2019-03-29T16:21:25.954Z,13.20
2019-03-29T16:23:54.055Z,13.30
2019-03-29T16:26:22.197Z,13.30
2019-03-29T16:28:50.294Z,13.30
2019-03-29T16:31:18.755Z,13.20
2019-03-29T16:33:46.844Z,13.20
2019-03-29T16:36:14.899Z,13.10
2019-03-29T16:38:42.991Z,13.10
2019-03-29T16:41:11.046Z,13.00
2019-03-29T16:43:39.142Z,13.10
2019-03-29T16:46:07.293Z,13.00
2019-03-29T16:48:35.667Z,12.90
2019-03-29T16:51:04.766Z,12.80
2019-03-29T16:53:32.858Z,12.80
2019-03-29T16:56:00.919Z,12.70
2019-03-29T16:58:29.279Z,12.70
2019-03-29T17:00:57.362Z,12.70
2019-03-29T17:03:25.461Z,12.60
2019-03-29T17:05:53.610Z,12.60
2019-03-29T17:08:21.702Z,12.50
2019-03-29T17:10:49.753Z,12.50
2019-03-29T17:13:17.846Z,12.50
2019-03-29T17:15:45.897Z,12.50
2019-03-29T17:18:13.993Z,12.40
2019-03-29T17:20:42.145Z,12.40
2019-03-29T17:23:10.534Z,12.40
2019-03-29T17:25:38.595Z,12.40
2019-03-29T17:28:06.695Z,12.40
2019-03-29T17:30:36.960Z,12.40
2019-03-29T17:33:05.109Z,12.40
2019-03-29T17:35:33.238Z,12.40
2019-03-29T17:38:01.286Z,12.30
2019-03-29T17:40:29.411Z,12.30
2019-03-29T17:42:57.558Z,12.20
2019-03-29T17:45:25.650Z,12.20
2019-03-29T17:47:53.713Z,12.10
2019-03-29T17:50:25.136Z,12.10
2019-03-29T17:52:52.505Z,12.00
2019-03-29T17:55:20.589Z,12.00
2019-03-29T17:57:48.674Z,12.00
2019-03-29T18:00:18.850Z,12.00
2019-03-29T18:02:47.145Z,11.90
2019-03-29T18:05:15.359Z,11.90
2019-03-29T18:07:43.415Z,11.80
2019-03-29T18:10:11.495Z,11.80
2019-03-29T18:12:39.549Z,11.70
2019-03-29T18:15:08.298Z,11.70
2019-03-29T18:17:36.485Z,11.70
2019-03-29T18:20:04.997Z,11.70
2019-03-29T18:22:33.066Z,11.80
2019-03-29T18:25:01.158Z,11.80
2019-03-29T18:27:29.614Z,11.70
2019-03-29T18:29:57.716Z,11.60
2019-03-29T18:32:25.870Z,11.50
2019-03-29T18:34:54.139Z,11.50
2019-03-29T18:37:22.290Z,11.50
2019-03-29T18:39:50.490Z,11.40
2019-03-29T18:42:18.559Z,11.30
2019-03-29T18:44:46.617Z,11.30
2019-03-29T18:47:14.658Z,11.30
2019-03-29T18:49:42.802Z,11.20
2019-03-29T18:52:10.950Z,11.20
2019-03-29T18:54:39.054Z,11.20
2019-03-29T18:57:07.198Z,11.10
2019-03-29T18:59:35.291Z,11.10
2019-03-29T19:02:03.422Z,10.90
2019-03-29T19:04:31.514Z,10.80
2019-03-29T19:06:59.613Z,10.70
2019-03-29T19:09:27.658Z,10.60
2019-03-29T19:11:55.815Z,10.60
2019-03-29T19:14:23.862Z,10.50
2019-03-29T19:16:58.699Z,10.40
2019-03-29T19:19:21.790Z,10.20
2019-03-29T19:21:49.887Z,10.20
2019-03-29T19:24:17.921Z,10.10
2019-03-29T19:26:46.029Z,10.00
2019-03-29T19:29:14.086Z,10.00
2019-03-29T19:31:42.186Z,9.90
2019-03-29T19:34:10.327Z,9.80
2019-03-29T19:36:38.418Z,9.80
2019-03-29T19:39:07.138Z,9.80
2019-03-29T19:41:35.402Z,9.80
2019-03-29T19:44:03.602Z,9.70
2019-03-29T19:46:31.726Z,9.60
2019-03-29T19:48:59.762Z,9.60
2019-03-29T19:51:27.874Z,9.50
2019-03-29T19:54:06.789Z,9.50
2019-03-29T19:56:25.794Z,9.40
2019-03-29T19:58:53.922Z,9.40
2019-03-29T20:01:21.978Z,9.40
2019-03-29T20:03:50.088Z,9.40
2019-03-29T20:06:18.255Z,9.30
2019-03-29T20:08:46.307Z,9.30
2019-03-29T20:11:15.230Z,9.30
2019-03-29T20:13:43.387Z,9.30
2019-03-29T20:16:11.463Z,9.30
2019-03-29T20:18:39.645Z,9.30
2019-03-29T20:21:07.798Z,9.20
2019-03-29T20:23:35.883Z,9.20
2019-03-29T20:26:03.977Z,9.20
2019-03-29T20:28:33.010Z,9.20
2019-03-29T20:31:01.179Z,9.10
2019-03-29T20:33:29.254Z,9.10
2019-03-29T20:35:57.684Z,9.00
2019-03-29T20:38:25.750Z,9.00
2019-03-29T20:40:54.131Z,9.00
2019-03-29T20:43:22.219Z,8.90
2019-03-29T20:45:50.378Z,8.90
2019-03-29T20:48:18.458Z,8.90
2019-03-29T20:50:46.602Z,8.80
2019-03-29T20:53:14.698Z,8.90
2019-03-29T20:55:42.774Z,8.90
2019-03-29T20:58:10.851Z,8.90
2019-03-29T21:00:39.001Z,8.80
2019-03-29T21:03:07.102Z,8.80
2019-03-29T21:05:35.247Z,8.80
2019-03-29T21:08:03.334Z,8.90
2019-03-29T21:10:31.427Z,8.90
2019-03-29T21:12:59.608Z,8.80
2019-03-29T21:15:27.791Z,8.80
2019-03-29T21:17:57.890Z,8.70
2019-03-29T21:20:25.713Z,8.70
2019-03-29T21:22:54.101Z,8.70
2019-03-29T21:25:22.187Z,8.80
2019-03-29T21:27:50.266Z,8.70
2019-03-29T21:30:18.630Z,8.60
2019-03-29T21:32:47.414Z,8.50
2019-03-29T21:35:15.477Z,8.40
2019-03-29T21:37:43.573Z,8.40
2019-03-29T21:40:11.911Z,8.30
2019-03-29T21:42:40.050Z,8.40
2019-03-29T21:45:08.714Z,8.30
2019-03-29T21:47:36.776Z,8.30
2019-03-29T21:50:05.334Z,8.30
2019-03-29T21:52:33.447Z,8.20
2019-03-29T21:55:01.522Z,8.20
2019-03-29T21:57:29.574Z,8.20
2019-03-29T21:59:57.686Z,8.20
2019-03-29T22:02:25.946Z,8.20
2019-03-29T22:04:54.034Z,8.30
2019-03-29T22:07:22.162Z,8.20
2019-03-29T22:09:50.261Z,8.20
2019-03-29T22:12:18.647Z,8.20
2019-03-29T22:14:47.248Z,8.10
2019-03-29T22:17:15.496Z,8.00
2019-03-29T22:19:43.594Z,8.00
2019-03-29T22:22:11.785Z,8.00
2019-03-29T22:24:39.931Z,8.00
2019-03-29T22:27:08.078Z,8.00
2019-03-29T22:29:36.458Z,7.90
2019-03-29T22:32:04.686Z,8.00
2019-03-29T22:34:32.826Z,8.00
2019-03-29T22:37:00.905Z,8.00
2019-03-29T22:39:28.961Z,8.00
2019-03-29T22:41:57.106Z,8.00
2019-03-29T22:44:25.227Z,7.90
2019-03-29T22:46:53.377Z,7.90
2019-03-29T22:49:21.470Z,7.80
2019-03-29T22:51:49.538Z,7.80
2019-03-29T22:54:17.618Z,7.80
2019-03-29T22:56:45.914Z,7.90
2019-03-29T22:59:14.067Z,7.80
2019-03-29T23:01:42.890Z,7.80
2019-03-29T23:04:11.058Z,7.70
2019-03-29T23:06:39.190Z,7.60
2019-03-29T23:09:07.358Z,7.60
2019-03-29T23:11:35.462Z,7.60
2019-03-29T23:14:03.685Z,7.60
2019-03-29T23:16:32.158Z,7.60
2019-03-29T23:19:06.753Z,7.60
2019-03-29T23:21:30.794Z,7.50
2019-03-29T23:23:58.875Z,7.50
2019-03-29T23:26:27.067Z,7.40
2019-03-29T23:28:55.338Z,7.40
2019-03-29T23:31:23.524Z,7.40
2019-03-29T23:33:51.666Z,7.40
2019-03-29T23:36:19.757Z,7.40
2019-03-29T23:38:47.827Z,7.40
2019-03-29T23:41:15.938Z,7.40
2019-03-29T23:43:44.061Z,7.30
2019-03-29T23:46:12.450Z,7.40
2019-03-29T23:48:40.525Z,7.30
2019-03-29T23:51:08.605Z,7.30
2019-03-29T23:53:36.669Z,7.30
2019-03-29T23:56:04.738Z,7.30
2019-03-29T23:58:32.805Z,7.20
